createdAt,value
2019-02-21T00:01:20.171Z,6.60
2019-02-21T00:04:00.043Z,6.50
2019-02-21T00:06:39.778Z,6.50
2019-02-21T00:09:19.570Z,6.40
2019-02-21T00:11:59.439Z,6.40
2019-02-21T00:14:39.336Z,6.40
2019-02-21T00:17:19.049Z,6.40
2019-02-21T00:19:58.829Z,6.40
2019-02-21T00:22:38.854Z,6.40
2019-02-21T00:25:18.714Z,6.40
2019-02-21T00:27:58.639Z,6.30
2019-02-21T00:30:38.490Z,6.30
2019-02-21T00:33:18.538Z,6.30
2019-02-21T00:35:58.279Z,6.30
2019-02-21T00:38:38.056Z,6.40
2019-02-21T00:41:17.974Z,6.40
2019-02-21T00:43:57.712Z,6.40
2019-02-21T00:46:37.464Z,6.40
2019-02-21T00:49:17.386Z,6.40
2019-02-21T00:51:57.128Z,6.40
2019-02-21T00:54:36.928Z,6.40
2019-02-21T00:57:17.129Z,6.40
2019-02-21T00:59:56.985Z,6.40
2019-02-21T01:02:36.697Z,6.50
2019-02-21T01:05:16.538Z,6.50
2019-02-21T01:07:56.407Z,6.50
2019-02-21T01:10:36.199Z,6.50
2019-02-21T01:13:16.019Z,6.60
2019-02-21T01:15:55.707Z,6.70
2019-02-21T01:18:35.612Z,6.70
2019-02-21T01:21:15.287Z,6.70
2019-02-21T01:23:55.103Z,6.70
2019-02-21T01:26:34.837Z,6.70
2019-02-21T01:29:14.732Z,6.60
2019-02-21T01:31:54.770Z,6.60
2019-02-21T01:34:34.615Z,6.50
2019-02-21T01:37:14.350Z,6.50
2019-02-21T01:39:54.204Z,6.40
2019-02-21T01:42:33.949Z,6.40
2019-02-21T01:45:13.829Z,6.40
2019-02-21T01:47:53.641Z,6.30
2019-02-21T01:50:33.929Z,6.40
2019-02-21T01:53:13.970Z,6.40
2019-02-21T01:55:53.722Z,6.40
2019-02-21T01:58:33.600Z,6.40
2019-02-21T02:01:13.429Z,6.40
2019-02-21T02:03:53.249Z,6.40
2019-02-21T02:06:34.009Z,6.30
2019-02-21T02:09:14.904Z,6.30
2019-02-21T02:11:54.722Z,6.30
2019-02-21T02:14:34.622Z,6.30
2019-02-21T02:17:14.383Z,6.20
2019-02-21T02:19:54.103Z,6.30
2019-02-21T02:22:33.744Z,6.20
2019-02-21T02:25:13.490Z,6.20
2019-02-21T02:27:53.231Z,6.20
2019-02-21T02:30:32.954Z,6.10
2019-02-21T02:33:12.829Z,6.10
2019-02-21T02:35:52.679Z,6.10
2019-02-21T02:38:32.418Z,6.10
2019-02-21T02:41:12.877Z,6.10
2019-02-21T02:43:52.747Z,6.10
2019-02-21T02:46:32.404Z,6.10
2019-02-21T02:49:13.604Z,6.20
2019-02-21T02:51:53.390Z,6.20
2019-02-21T02:54:43.429Z,6.20
2019-02-21T02:57:23.382Z,6.20
2019-02-21T03:00:14.434Z,6.20
2019-02-21T03:02:55.908Z,6.10
2019-02-21T03:05:35.682Z,6.10
2019-02-21T03:08:15.445Z,6.00
2019-02-21T03:10:55.214Z,6.00
2019-02-21T03:13:36.679Z,6.00
2019-02-21T03:16:16.402Z,5.90
2019-02-21T03:18:56.081Z,5.90
2019-02-21T03:21:35.802Z,5.90
2019-02-21T03:24:15.511Z,5.90
2019-02-21T03:26:55.237Z,5.90
2019-02-21T03:29:35.043Z,5.90
2019-02-21T03:32:14.916Z,5.90
2019-02-21T03:34:55.063Z,5.90
2019-02-21T03:37:34.779Z,5.90
2019-02-21T03:40:15.562Z,5.90
2019-02-21T03:42:55.300Z,5.90
2019-02-21T03:45:35.015Z,5.90
2019-02-21T03:48:14.770Z,6.00
2019-02-21T03:50:54.756Z,6.00
2019-02-21T03:53:34.619Z,6.00
2019-02-21T03:56:14.899Z,6.00
2019-02-21T03:58:54.732Z,6.00
2019-02-21T04:01:34.486Z,6.00
2019-02-21T04:04:14.139Z,6.00
2019-02-21T04:06:53.877Z,6.00
2019-02-21T04:09:33.570Z,6.00
2019-02-21T04:12:14.195Z,6.00
2019-02-21T04:14:54.006Z,6.00
2019-02-21T04:17:33.916Z,6.00
2019-02-21T04:20:13.840Z,6.00
2019-02-21T04:22:53.649Z,6.00
2019-02-21T04:25:33.314Z,6.10
2019-02-21T04:28:14.263Z,6.20
2019-02-21T04:30:54.076Z,6.30
2019-02-21T04:33:34.498Z,6.40
2019-02-21T04:36:14.403Z,6.30
2019-02-21T04:38:54.407Z,6.40
2019-02-21T04:41:34.234Z,6.40
2019-02-21T04:44:14.053Z,6.40
2019-02-21T04:46:53.768Z,6.50
2019-02-21T04:49:33.559Z,6.50
2019-02-21T04:52:13.427Z,6.50
2019-02-21T04:54:53.765Z,6.40
2019-02-21T04:57:33.741Z,6.50
2019-02-21T05:00:13.927Z,5.10
2019-02-21T05:02:53.736Z,6.50
2019-02-21T05:05:33.769Z,6.50
2019-02-21T05:08:13.698Z,6.50
2019-02-21T05:10:53.463Z,6.50
2019-02-21T05:13:33.925Z,6.50
2019-02-21T05:16:13.973Z,6.40
2019-02-21T05:18:53.805Z,6.40
2019-02-21T05:21:33.543Z,6.50
2019-02-21T05:24:13.345Z,6.50
2019-02-21T05:27:00.396Z,6.50
2019-02-21T05:29:40.571Z,6.60
2019-02-21T05:32:40.988Z,6.50
2019-02-21T05:35:31.125Z,6.50
2019-02-21T05:38:35.452Z,6.60
2019-02-21T05:41:37.238Z,6.50
2019-02-21T05:44:29.123Z,6.40
2019-02-21T05:47:37.155Z,6.30
2019-02-21T05:50:28.742Z,6.30
2019-02-21T05:53:33.302Z,6.20
2019-02-21T05:56:30.128Z,6.20
2019-02-21T05:59:20.663Z,6.30
2019-02-21T06:02:19.450Z,6.30
2019-02-21T06:05:19.280Z,5.70
2019-02-21T06:08:21.817Z,6.20
2019-02-21T06:11:18.494Z,6.30
2019-02-21T06:14:11.277Z,6.50
2019-02-21T06:17:28.641Z,6.50
2019-02-21T06:20:33.759Z,6.40
2019-02-21T06:23:32.788Z,6.40
2019-02-21T06:26:19.875Z,6.40
2019-02-21T06:29:03.727Z,6.40
2019-02-21T06:31:43.460Z,6.50
2019-02-21T06:34:23.193Z,6.70
2019-02-21T06:37:03.002Z,6.80
2019-02-21T06:39:42.858Z,6.90
2019-02-21T06:42:22.622Z,7.00
2019-02-21T06:45:02.738Z,7.10
2019-02-21T06:47:42.482Z,7.20
2019-02-21T06:50:26.700Z,7.20
2019-02-21T06:53:03.707Z,7.30
2019-02-21T06:55:43.549Z,7.40
2019-02-21T06:58:23.569Z,7.50
2019-02-21T07:01:03.343Z,7.50
2019-02-21T07:03:43.512Z,7.50
2019-02-21T07:06:31.365Z,7.50
2019-02-21T07:09:05.738Z,7.50
2019-02-21T07:11:46.105Z,7.60
2019-02-21T07:14:26.287Z,7.60
2019-02-21T07:17:08.452Z,7.70
2019-02-21T07:19:48.871Z,7.70
2019-02-21T07:22:28.632Z,7.70
2019-02-21T07:25:21.894Z,7.80
2019-02-21T07:28:11.347Z,7.80
2019-02-21T07:30:43.366Z,7.90
2019-02-21T07:33:28.550Z,8.10
2019-02-21T07:36:04.735Z,8.30
2019-02-21T07:38:44.521Z,8.40
2019-02-21T07:41:24.335Z,8.60
2019-02-21T07:44:11.618Z,8.60
2019-02-21T07:46:46.426Z,8.60
2019-02-21T07:49:26.870Z,8.80
2019-02-21T07:52:07.103Z,8.70
2019-02-21T07:54:50.902Z,8.50
2019-02-21T07:57:30.761Z,8.50
2019-02-21T08:00:11.742Z,8.60
2019-02-21T08:02:51.640Z,8.70
2019-02-21T08:05:34.185Z,8.90
2019-02-21T08:08:16.167Z,9.30
2019-02-21T08:10:55.987Z,9.60
2019-02-21T08:13:35.817Z,9.80
2019-02-21T08:16:15.780Z,9.70
2019-02-21T08:18:55.639Z,9.70
2019-02-21T08:21:35.465Z,9.90
2019-02-21T08:24:15.354Z,10.20
2019-02-21T08:26:55.173Z,10.30
2019-02-21T08:29:34.981Z,10.20
2019-02-21T08:32:16.847Z,10.10
2019-02-21T08:34:56.852Z,10.20
2019-02-21T08:37:36.662Z,10.00
2019-02-21T08:40:16.483Z,9.90
2019-02-21T08:42:56.488Z,9.90
2019-02-21T08:45:36.203Z,9.90
2019-02-21T08:48:16.044Z,9.90
2019-02-21T08:50:56.036Z,10.10
2019-02-21T08:53:36.003Z,10.10
2019-02-21T08:56:16.203Z,10.10
2019-02-21T08:58:57.681Z,10.20
2019-02-21T09:01:37.583Z,10.50
2019-02-21T09:04:26.915Z,10.50
2019-02-21T09:06:59.830Z,10.40
2019-02-21T09:09:40.364Z,10.60
2019-02-21T09:12:20.462Z,10.80
2019-02-21T09:15:00.613Z,11.10
2019-02-21T09:17:40.455Z,11.20
2019-02-21T09:20:20.387Z,11.60
2019-02-21T09:23:00.198Z,12.40
2019-02-21T09:25:39.837Z,12.80
2019-02-21T09:28:19.695Z,12.90
2019-02-21T09:30:59.561Z,12.30
2019-02-21T09:33:39.632Z,11.40
2019-02-21T09:36:19.350Z,10.90
2019-02-21T09:38:59.117Z,10.80
2019-02-21T09:41:39.053Z,10.70
2019-02-21T09:44:19.297Z,10.60
2019-02-21T09:47:02.373Z,10.50
2019-02-21T09:49:42.167Z,10.60
2019-02-21T09:52:22.179Z,10.70
2019-02-21T09:55:02.080Z,10.80
2019-02-21T09:57:43.144Z,10.90
2019-02-21T10:00:22.941Z,11.20
2019-02-21T10:03:03.781Z,11.70
2019-02-21T10:05:43.680Z,11.80
2019-02-21T10:08:23.632Z,11.80
2019-02-21T10:11:03.549Z,11.90
2019-02-21T10:13:44.616Z,11.90
2019-02-21T10:16:24.410Z,12.00
2019-02-21T10:19:04.274Z,12.00
2019-02-21T10:21:44.066Z,11.80
2019-02-21T10:24:23.842Z,11.60
2019-02-21T10:27:03.644Z,11.40
2019-02-21T10:29:43.443Z,11.40
2019-02-21T10:32:23.279Z,11.20
2019-02-21T10:35:03.064Z,11.20
2019-02-21T10:37:42.940Z,11.20
2019-02-21T10:40:23.216Z,11.10
2019-02-21T10:43:02.977Z,10.90
2019-02-21T10:45:47.743Z,10.60
2019-02-21T10:48:27.090Z,10.40
2019-02-21T10:51:06.963Z,10.30
2019-02-21T10:53:47.397Z,10.20
2019-02-21T10:56:27.218Z,10.20
2019-02-21T10:59:06.971Z,10.00
2019-02-21T11:01:46.824Z,10.00
2019-02-21T11:04:26.946Z,9.80
2019-02-21T11:07:06.647Z,9.80
2019-02-21T11:09:47.313Z,9.80
2019-02-21T11:12:27.199Z,9.70
2019-02-21T11:15:10.967Z,9.60
2019-02-21T11:17:51.029Z,9.60
2019-02-21T11:20:30.869Z,9.50
2019-02-21T11:23:10.719Z,9.70
2019-02-21T11:25:51.825Z,9.90
2019-02-21T11:28:31.776Z,10.10
2019-02-21T11:31:11.711Z,10.40
2019-02-21T11:33:51.998Z,10.50
2019-02-21T11:36:31.895Z,10.50
2019-02-21T11:39:11.683Z,10.30
2019-02-21T11:41:51.496Z,10.20
2019-02-21T11:44:31.332Z,10.10
2019-02-21T11:47:11.227Z,9.90
2019-02-21T11:49:53.279Z,9.80
2019-02-21T11:52:33.286Z,9.80
2019-02-21T11:55:16.232Z,9.90
2019-02-21T11:57:56.068Z,10.10
2019-02-21T12:00:36.175Z,10.30
2019-02-21T12:03:16.116Z,10.60
2019-02-21T12:05:55.885Z,10.50
2019-02-21T12:08:35.738Z,10.50
2019-02-21T12:11:15.604Z,10.50
2019-02-21T12:13:55.539Z,10.40
2019-02-21T12:16:38.541Z,10.30
2019-02-21T12:19:19.035Z,10.30
2019-02-21T12:21:59.543Z,10.50
2019-02-21T12:24:39.364Z,11.30
2019-02-21T12:27:19.194Z,11.80
2019-02-21T12:29:59.031Z,11.90
2019-02-21T12:32:38.854Z,12.00
2019-02-21T12:35:29.395Z,11.90
2019-02-21T12:38:00.038Z,12.20
2019-02-21T12:40:39.858Z,12.30
2019-02-21T12:43:21.040Z,12.60
2019-02-21T12:46:03.144Z,12.70
2019-02-21T12:48:42.989Z,12.80
2019-02-21T12:51:22.956Z,12.90
2019-02-21T12:54:06.330Z,12.90
2019-02-21T12:56:45.812Z,12.90
2019-02-21T12:59:25.495Z,13.20
2019-02-21T13:02:05.941Z,13.20
2019-02-21T13:04:45.737Z,13.10
2019-02-21T13:07:27.486Z,12.90
2019-02-21T13:10:11.277Z,12.80
2019-02-21T13:12:51.118Z,12.80
2019-02-21T13:15:31.857Z,13.10
2019-02-21T13:18:15.854Z,13.30
2019-02-21T13:20:52.946Z,13.70
2019-02-21T13:23:32.669Z,13.60
2019-02-21T13:26:12.700Z,13.20
2019-02-21T13:28:52.161Z,13.10
2019-02-21T13:31:31.927Z,12.70
2019-02-21T13:34:11.862Z,12.60
2019-02-21T13:36:51.393Z,12.40
2019-02-21T13:39:31.237Z,12.40
2019-02-21T13:42:10.787Z,13.40
2019-02-21T13:44:50.536Z,12.90
2019-02-21T13:47:30.430Z,12.80
2019-02-21T13:50:14.098Z,12.50
2019-02-21T13:52:53.537Z,12.10
2019-02-21T13:55:33.434Z,12.00
2019-02-21T13:58:13.320Z,12.00
2019-02-21T14:00:53.128Z,12.00
2019-02-21T14:03:32.869Z,11.70
2019-02-21T14:06:15.148Z,12.10
2019-02-21T14:08:54.853Z,11.90
2019-02-21T14:11:34.740Z,11.80
2019-02-21T14:14:14.550Z,11.70
2019-02-21T14:16:54.426Z,11.70
2019-02-21T14:19:34.168Z,11.90
2019-02-21T14:22:15.454Z,11.80
2019-02-21T14:24:55.138Z,11.80
2019-02-21T14:27:34.863Z,11.90
2019-02-21T14:30:17.094Z,11.70
2019-02-21T14:32:59.882Z,11.60
2019-02-21T14:35:40.798Z,11.70
2019-02-21T14:38:27.776Z,11.80
2019-02-21T14:41:01.980Z,11.80
2019-02-21T14:43:41.774Z,11.80
2019-02-21T14:46:21.856Z,11.70
2019-02-21T14:49:01.584Z,11.60
2019-02-21T14:51:42.558Z,11.40
2019-02-21T14:54:24.060Z,11.20
2019-02-21T14:57:03.838Z,11.00
2019-02-21T14:59:46.351Z,11.00
2019-02-21T15:02:26.044Z,10.80
2019-02-21T15:05:06.276Z,10.70
2019-02-21T15:07:46.098Z,10.50
2019-02-21T15:10:25.893Z,10.50
2019-02-21T15:13:05.622Z,10.50
2019-02-21T15:15:45.516Z,10.50
2019-02-21T15:18:25.337Z,10.50
2019-02-21T15:21:06.167Z,10.50
2019-02-21T15:23:46.015Z,10.50
2019-02-21T15:26:26.054Z,10.40
2019-02-21T15:29:05.764Z,10.40
2019-02-21T15:31:46.131Z,10.40
2019-02-21T15:34:26.991Z,10.40
2019-02-21T15:37:07.266Z,10.40
2019-02-21T15:39:47.024Z,10.30
2019-02-21T15:42:26.902Z,10.30
2019-02-21T15:45:22.897Z,10.30
2019-02-21T15:47:58.798Z,10.30
2019-02-21T15:50:38.617Z,10.20
2019-02-21T15:53:18.550Z,10.20
2019-02-21T15:55:58.446Z,10.10
2019-02-21T15:58:38.500Z,10.10
2019-02-21T16:01:18.364Z,10.10
2019-02-21T16:03:58.331Z,10.10
2019-02-21T16:06:48.207Z,10.10
2019-02-21T16:09:22.048Z,10.10
2019-02-21T16:12:02.405Z,10.00
2019-02-21T16:14:42.192Z,10.00
2019-02-21T16:17:22.067Z,10.00
2019-02-21T16:20:02.127Z,10.00
2019-02-21T16:22:42.155Z,10.00
2019-02-21T16:25:22.735Z,10.00
2019-02-21T16:28:02.664Z,10.10
2019-02-21T16:30:42.588Z,10.00
2019-02-21T16:33:22.320Z,10.00
2019-02-21T16:36:02.412Z,10.00
2019-02-21T16:38:43.932Z,9.90
2019-02-21T16:41:24.151Z,9.90
2019-02-21T16:44:04.049Z,9.90
2019-02-21T16:46:44.069Z,9.80
2019-02-21T16:49:24.827Z,9.90
2019-02-21T16:52:04.936Z,9.90
2019-02-21T16:54:44.779Z,9.90
2019-02-21T16:57:24.472Z,9.90
2019-02-21T17:00:04.459Z,9.80
2019-02-21T17:02:45.845Z,9.80
2019-02-21T17:05:25.743Z,9.80
2019-02-21T17:08:05.750Z,9.80
2019-02-21T17:10:45.653Z,9.80
2019-02-21T17:13:25.366Z,9.80
2019-02-21T17:16:05.131Z,9.80
2019-02-21T17:18:44.899Z,9.80
2019-02-21T17:21:25.690Z,9.70
2019-02-21T17:24:05.832Z,9.70
2019-02-21T17:26:46.570Z,9.70
2019-02-21T17:29:26.332Z,9.70
2019-02-21T17:32:06.297Z,9.60
2019-02-21T17:34:46.124Z,9.70
2019-02-21T17:37:27.202Z,9.60
2019-02-21T17:40:09.838Z,9.50
2019-02-21T17:42:49.738Z,9.50
2019-02-21T17:45:29.829Z,9.50
2019-02-21T17:48:09.763Z,9.50
2019-02-21T17:50:49.537Z,9.60
2019-02-21T17:53:29.375Z,9.60
2019-02-21T17:56:09.621Z,9.60
2019-02-21T17:58:49.462Z,9.60
2019-02-21T18:01:29.570Z,9.60
2019-02-21T18:04:11.373Z,9.50
2019-02-21T18:06:51.484Z,9.60
2019-02-21T18:09:31.717Z,9.50
2019-02-21T18:12:12.607Z,9.50
2019-02-21T18:14:55.745Z,9.40
2019-02-21T18:17:35.797Z,9.40
2019-02-21T18:20:15.920Z,9.40
2019-02-21T18:22:56.126Z,9.40
2019-02-21T18:25:44.078Z,9.40
2019-02-21T18:28:24.442Z,9.30
2019-02-21T18:31:06.134Z,9.40
2019-02-21T18:33:46.224Z,9.40
2019-02-21T18:36:26.246Z,9.40
2019-02-21T18:39:09.545Z,9.40
2019-02-21T18:41:50.005Z,9.40
2019-02-21T18:44:30.245Z,9.30
2019-02-21T18:47:10.083Z,9.30
2019-02-21T18:49:50.229Z,9.20
2019-02-21T18:52:35.301Z,9.20
2019-02-21T18:55:15.500Z,9.20
2019-02-21T18:57:55.257Z,9.10
2019-02-21T19:00:35.571Z,9.00
2019-02-21T19:03:15.549Z,9.00
2019-02-21T19:05:56.117Z,9.00
2019-02-21T19:08:38.903Z,9.10
2019-02-21T19:11:19.081Z,9.00
2019-02-21T19:13:58.912Z,9.00
2019-02-21T19:16:39.450Z,8.90
2019-02-21T19:19:19.298Z,8.90
2019-02-21T19:22:00.617Z,8.80
2019-02-21T19:24:40.784Z,8.90
2019-02-21T19:27:20.809Z,8.90
2019-02-21T19:30:00.808Z,8.90
2019-02-21T19:32:42.603Z,8.90
2019-02-21T19:35:22.550Z,8.90
2019-02-21T19:38:10.418Z,8.80
2019-02-21T19:40:46.250Z,8.80
2019-02-21T19:43:26.125Z,8.90
2019-02-21T19:46:06.110Z,8.80
2019-02-21T19:48:49.610Z,8.80
2019-02-21T19:51:31.619Z,8.90
2019-02-21T19:54:11.700Z,8.80
2019-02-21T19:56:51.525Z,8.80
2019-02-21T19:59:33.779Z,8.80
2019-02-21T20:02:13.557Z,8.90
2019-02-21T20:04:55.201Z,8.90
2019-02-21T20:07:35.056Z,8.90
2019-02-21T20:10:15.660Z,8.90
2019-02-21T20:12:57.266Z,8.80
2019-02-21T20:15:42.018Z,8.70
2019-02-21T20:18:23.865Z,8.70
2019-02-21T20:21:03.862Z,8.70
2019-02-21T20:23:43.788Z,8.70
2019-02-21T20:26:23.682Z,8.70
2019-02-21T20:29:05.451Z,8.70
2019-02-21T20:31:46.512Z,8.70
2019-02-21T20:34:26.388Z,8.70
2019-02-21T20:37:06.459Z,8.70
2019-02-21T20:39:47.543Z,8.70
2019-02-21T20:42:27.691Z,8.70
2019-02-21T20:45:08.242Z,8.70
2019-02-21T20:47:49.235Z,8.70
2019-02-21T20:50:29.058Z,8.70
2019-02-21T20:53:09.137Z,8.70
2019-02-21T20:55:49.100Z,8.80
2019-02-21T20:58:29.227Z,8.80
2019-02-21T21:01:09.305Z,8.80
2019-02-21T21:03:49.255Z,8.80
2019-02-21T21:06:30.397Z,8.70
2019-02-21T21:09:12.125Z,8.70
2019-02-21T21:11:56.332Z,8.70
2019-02-21T21:14:37.314Z,8.60
2019-02-21T21:17:20.453Z,8.60
2019-02-21T21:20:00.456Z,8.60
2019-02-21T21:22:40.422Z,8.50
2019-02-21T21:25:20.828Z,8.50
2019-02-21T21:28:00.633Z,8.50
2019-02-21T21:30:40.861Z,8.50
2019-02-21T21:33:21.470Z,8.50
2019-02-21T21:36:01.596Z,8.50
2019-02-21T21:38:53.367Z,8.50
2019-02-21T21:41:24.853Z,8.50
2019-02-21T21:44:04.993Z,8.50
2019-02-21T21:46:45.928Z,8.50
2019-02-21T21:49:27.395Z,8.50
2019-02-21T21:52:07.598Z,8.50
2019-02-21T21:54:50.241Z,8.50
2019-02-21T21:57:30.384Z,8.40
2019-02-21T22:00:18.387Z,8.40
2019-02-21T22:02:59.629Z,8.40
2019-02-21T22:05:39.459Z,8.50
2019-02-21T22:08:19.406Z,8.50
2019-02-21T22:10:59.255Z,8.40
2019-02-21T22:13:39.121Z,8.30
2019-02-21T22:16:19.167Z,8.30
2019-02-21T22:19:00.596Z,8.30
2019-02-21T22:21:41.536Z,8.30
2019-02-21T22:24:21.623Z,8.30
2019-02-21T22:27:01.375Z,8.20
2019-02-21T22:29:41.383Z,8.30
2019-02-21T22:32:21.148Z,8.20
2019-02-21T22:35:01.373Z,8.20
2019-02-21T22:37:41.224Z,8.10
2019-02-21T22:40:21.393Z,8.10
2019-02-21T22:43:03.624Z,8.10
2019-02-21T22:45:43.857Z,8.10
2019-02-21T22:48:23.643Z,8.20
2019-02-21T22:51:03.592Z,8.20
2019-02-21T22:53:43.496Z,8.20
2019-02-21T22:56:23.345Z,8.20
2019-02-21T22:59:03.180Z,8.30
2019-02-21T23:01:46.188Z,8.30
2019-02-21T23:05:06.495Z,8.30
2019-02-21T23:08:32.188Z,8.30
2019-02-21T23:11:12.410Z,8.30
2019-02-21T23:13:52.709Z,8.30
2019-02-21T23:16:32.538Z,8.30
2019-02-21T23:19:12.651Z,8.30
2019-02-21T23:21:55.372Z,8.40
2019-02-21T23:24:35.342Z,8.40
2019-02-21T23:27:15.119Z,8.40
2019-02-21T23:29:54.904Z,8.30
2019-02-21T23:32:34.583Z,8.40
2019-02-21T23:35:20.215Z,8.40
2019-02-21T23:37:59.854Z,8.40
2019-02-21T23:40:39.725Z,8.40
2019-02-21T23:43:21.966Z,8.40
2019-02-21T23:46:03.383Z,8.40
2019-02-21T23:48:43.231Z,8.30
2019-02-21T23:51:23.136Z,8.40
2019-02-21T23:54:03.560Z,8.30
2019-02-21T23:56:43.628Z,8.30
2019-02-21T23:59:23.468Z,8.30
